createdAt,value
2022-11-06T00:01:09.996Z,1002.9
2022-11-06T00:02:26.295Z,1002.8
2022-11-06T00:03:42.590Z,1002.8
2022-11-06T00:04:58.879Z,1002.8
2022-11-06T00:06:15.187Z,1002.8
2022-11-06T00:07:31.477Z,1002.8
2022-11-06T00:08:47.766Z,1002.8
2022-11-06T00:10:04.070Z,1002.8
2022-11-06T00:11:20.360Z,1002.8
2022-11-06T00:12:35.683Z,1002.8
2022-11-06T00:13:51.967Z,1002.9
2022-11-06T00:15:08.261Z,1002.8
2022-11-06T00:16:24.563Z,1002.8
2022-11-06T00:17:40.844Z,1002.8
2022-11-06T00:18:57.154Z,1002.8
2022-11-06T00:20:13.440Z,1002.8
2022-11-06T00:21:29.746Z,1002.8
2022-11-06T00:22:46.035Z,1002.8
2022-11-06T00:24:02.330Z,1002.8
2022-11-06T00:25:18.627Z,1002.8
2022-11-06T00:27:51.201Z,1002.8
2022-11-06T00:29:06.517Z,1002.8
2022-11-06T00:30:22.810Z,1002.8
2022-11-06T00:31:39.105Z,1002.8
2022-11-06T00:32:55.397Z,1002.8
2022-11-06T00:34:11.697Z,1002.8
2022-11-06T00:35:27.990Z,1002.9
2022-11-06T00:36:44.283Z,1002.8
2022-11-06T00:38:00.577Z,1002.8
2022-11-06T00:39:16.884Z,1002.8
2022-11-06T00:40:33.175Z,1002.9
2022-11-06T00:41:49.469Z,1002.9
2022-11-06T00:43:05.754Z,1002.9
2022-11-06T00:44:22.061Z,1002.9
2022-11-06T00:45:37.364Z,1002.8
2022-11-06T00:46:53.667Z,1002.8
2022-11-06T00:48:09.952Z,1002.8
2022-11-06T00:49:26.248Z,1002.8
2022-11-06T00:50:42.535Z,1002.8
2022-11-06T00:51:58.834Z,1002.8
2022-11-06T00:53:15.127Z,1002.7
2022-11-06T00:54:31.437Z,1002.7
2022-11-06T00:55:47.724Z,1002.7
2022-11-06T00:57:04.026Z,1002.7
2022-11-06T00:58:20.315Z,1002.7
2022-11-06T00:59:36.612Z,1002.7
2022-11-06T01:00:52.898Z,1002.6
2022-11-06T01:02:08.222Z,1002.6
2022-11-06T01:03:24.503Z,1002.7
2022-11-06T01:05:57.097Z,1002.6
2022-11-06T01:07:13.397Z,1002.7
2022-11-06T01:08:29.682Z,1002.6
2022-11-06T01:09:45.985Z,1002.7
2022-11-06T01:11:02.268Z,1002.7
2022-11-06T01:12:18.572Z,1002.7
2022-11-06T01:13:34.872Z,1002.7
2022-11-06T01:14:51.158Z,1002.7
2022-11-06T01:16:07.458Z,1002.7
2022-11-06T01:17:23.758Z,1002.6
2022-11-06T01:18:39.066Z,1002.7
2022-11-06T01:19:55.363Z,1002.7
2022-11-06T01:21:11.646Z,1002.7
2022-11-06T01:22:27.943Z,1002.7
2022-11-06T01:23:44.245Z,1002.7
2022-11-06T01:25:00.529Z,1002.7
2022-11-06T01:26:16.834Z,1002.7
2022-11-06T01:27:33.135Z,1002.7
2022-11-06T01:28:49.427Z,1002.7
2022-11-06T01:30:05.724Z,1002.6
2022-11-06T01:31:22.002Z,1002.6
2022-11-06T01:32:38.297Z,1002.6
2022-11-06T01:33:54.599Z,1002.7
2022-11-06T01:35:09.911Z,1002.7
2022-11-06T01:36:26.200Z,1002.6
2022-11-06T01:37:42.489Z,1002.6
2022-11-06T01:38:58.789Z,1002.5
2022-11-06T01:40:15.091Z,1002.6
2022-11-06T01:41:31.394Z,1002.6
2022-11-06T01:42:47.683Z,1002.6
2022-11-06T01:44:03.981Z,1002.6
2022-11-06T01:45:20.256Z,1002.5
2022-11-06T01:46:36.554Z,1002.5
2022-11-06T01:47:52.847Z,1002.5
2022-11-06T01:49:09.158Z,1002.6
2022-11-06T01:50:25.454Z,1002.5
2022-11-06T01:51:40.760Z,1002.5
2022-11-06T01:52:57.053Z,1002.5
2022-11-06T01:54:13.352Z,1002.5
2022-11-06T01:55:29.650Z,1002.4
2022-11-06T01:56:45.934Z,1002.4
2022-11-06T01:58:02.225Z,1002.3
2022-11-06T01:59:18.535Z,1002.3
2022-11-06T02:00:34.822Z,1002.3
2022-11-06T02:01:51.112Z,1002.3
2022-11-06T02:03:07.403Z,1002.3
2022-11-06T02:04:23.707Z,1002.3
2022-11-06T02:06:56.283Z,1002.4
2022-11-06T02:08:11.607Z,1002.3
2022-11-06T02:09:27.900Z,1002.3
2022-11-06T02:10:44.201Z,1002.3
2022-11-06T02:12:00.493Z,1002.3
2022-11-06T02:13:16.772Z,1002.3
2022-11-06T02:14:33.070Z,1002.3
2022-11-06T02:15:49.382Z,1002.3
2022-11-06T02:17:05.675Z,1002.3
2022-11-06T02:18:21.959Z,1002.3
2022-11-06T02:19:38.254Z,1002.3
2022-11-06T02:20:54.562Z,1002.3
2022-11-06T02:22:10.852Z,1002.2
2022-11-06T02:23:27.146Z,1002.2
2022-11-06T02:24:42.451Z,1002.2
2022-11-06T02:25:58.747Z,1002.2
2022-11-06T02:27:15.046Z,1002.1
2022-11-06T02:28:31.330Z,1002.2
2022-11-06T02:29:47.620Z,1002.1
2022-11-06T02:31:03.918Z,1002.2
2022-11-06T02:32:20.220Z,1002.1
2022-11-06T02:33:36.503Z,1002.1
2022-11-06T02:34:52.798Z,1002.1
2022-11-06T02:36:09.110Z,1002.1
2022-11-06T02:37:25.387Z,1002.1
2022-11-06T02:38:41.683Z,1002
2022-11-06T02:39:57.997Z,1002
2022-11-06T02:41:13.306Z,1002
2022-11-06T02:42:29.586Z,1002
2022-11-06T02:43:45.890Z,1002
2022-11-06T02:45:02.183Z,1002
2022-11-06T02:46:18.483Z,1002
2022-11-06T02:47:34.769Z,1001.9
2022-11-06T02:48:51.067Z,1002
2022-11-06T02:50:07.350Z,1001.9
2022-11-06T02:51:23.666Z,1001.9
2022-11-06T02:52:39.943Z,1001.9
2022-11-06T02:53:56.236Z,1001.9
2022-11-06T02:55:12.543Z,1001.9
2022-11-06T02:56:28.840Z,1002
2022-11-06T02:57:44.149Z,1001.9
2022-11-06T02:59:00.438Z,1001.9
2022-11-06T03:00:16.736Z,1001.9
2022-11-06T03:01:33.034Z,1001.9
2022-11-06T03:02:49.325Z,1001.9
2022-11-06T03:04:05.616Z,1001.9
2022-11-06T03:05:20.936Z,1001.9
2022-11-06T03:06:37.233Z,1002
2022-11-06T03:07:53.529Z,1002
2022-11-06T03:09:09.814Z,1002
2022-11-06T03:10:26.115Z,1002
2022-11-06T03:12:58.695Z,1002
2022-11-06T03:14:15.002Z,1002
2022-11-06T03:15:31.299Z,1002
2022-11-06T03:16:47.584Z,1002
2022-11-06T03:18:03.890Z,1002
2022-11-06T03:19:20.174Z,1002
2022-11-06T03:20:36.468Z,1002
2022-11-06T03:21:51.775Z,1002.1
2022-11-06T03:23:08.079Z,1002.1
2022-11-06T03:24:24.363Z,1002.1
2022-11-06T03:25:40.657Z,1002
2022-11-06T03:26:56.959Z,1002.1
2022-11-06T03:28:13.256Z,1002.1
2022-11-06T03:29:29.559Z,1002
2022-11-06T03:30:45.849Z,1002
2022-11-06T03:32:02.144Z,1002
2022-11-06T03:33:18.432Z,1001.9
2022-11-06T03:34:34.721Z,1002
2022-11-06T03:35:51.029Z,1001.9
2022-11-06T03:37:07.327Z,1002
2022-11-06T03:38:22.639Z,1001.9
2022-11-06T03:39:38.929Z,1001.9
2022-11-06T03:40:55.219Z,1002
2022-11-06T03:42:11.512Z,1001.9
2022-11-06T03:43:27.817Z,1001.9
2022-11-06T03:44:44.103Z,1001.9
2022-11-06T03:46:00.407Z,1002
2022-11-06T03:47:16.688Z,1001.9
2022-11-06T03:48:32.989Z,1001.9
2022-11-06T03:49:49.274Z,1002
2022-11-06T03:51:05.572Z,1002
2022-11-06T03:53:38.173Z,1002
2022-11-06T03:54:53.486Z,1002
2022-11-06T03:56:09.764Z,1001.9
2022-11-06T03:57:26.077Z,1001.9
2022-11-06T03:58:42.356Z,1001.8
2022-11-06T03:59:58.658Z,1001.9
2022-11-06T04:01:14.946Z,1001.9
2022-11-06T04:02:31.254Z,1001.9
2022-11-06T04:03:47.535Z,1001.9
2022-11-06T04:05:03.830Z,1001.9
2022-11-06T04:06:20.136Z,1001.8
2022-11-06T04:07:36.424Z,1001.8
2022-11-06T04:08:52.721Z,1001.8
2022-11-06T04:10:08.997Z,1001.8
2022-11-06T04:11:24.312Z,1001.8
2022-11-06T04:12:40.603Z,1001.8
2022-11-06T04:13:56.900Z,1001.8
2022-11-06T04:15:13.192Z,1001.8
2022-11-06T04:16:29.483Z,1001.8
2022-11-06T04:17:45.775Z,1001.8
2022-11-06T04:19:02.078Z,1001.8
2022-11-06T04:20:18.380Z,1001.8
2022-11-06T04:21:34.675Z,1001.8
2022-11-06T04:22:50.974Z,1001.8
2022-11-06T04:24:07.250Z,1001.8
2022-11-06T04:25:23.547Z,1001.8
2022-11-06T04:26:39.848Z,1001.7
2022-11-06T04:27:55.149Z,1001.8
2022-11-06T04:29:11.448Z,1001.8
2022-11-06T04:30:27.757Z,1001.7
2022-11-06T04:31:44.038Z,1001.7
2022-11-06T04:33:00.329Z,1001.7
2022-11-06T04:34:16.626Z,1001.7
2022-11-06T04:35:32.920Z,1001.7
2022-11-06T04:36:49.214Z,1001.7
2022-11-06T04:38:05.521Z,1001.7
2022-11-06T04:39:21.818Z,1001.7
2022-11-06T04:40:38.104Z,1001.7
2022-11-06T04:41:54.401Z,1001.7
2022-11-06T04:43:10.692Z,1001.7
2022-11-06T04:44:26.010Z,1001.7
2022-11-06T04:45:42.306Z,1001.7
2022-11-06T04:46:58.603Z,1001.7
2022-11-06T04:48:14.898Z,1001.6
2022-11-06T04:49:31.188Z,1001.7
2022-11-06T04:50:47.481Z,1001.6
2022-11-06T04:52:03.767Z,1001.6
2022-11-06T04:53:20.079Z,1001.6
2022-11-06T04:54:36.363Z,1001.6
2022-11-06T04:55:52.669Z,1001.7
2022-11-06T04:57:08.953Z,1001.6
2022-11-06T04:58:25.258Z,1001.5
2022-11-06T04:59:41.536Z,1001.5
2022-11-06T05:02:13.151Z,1001.5
2022-11-06T05:04:45.736Z,1001.4
2022-11-06T05:06:02.032Z,1001.4
2022-11-06T05:07:18.332Z,1001.3
2022-11-06T05:08:34.622Z,1001.4
2022-11-06T05:09:50.931Z,1001.4
2022-11-06T05:11:07.204Z,1001.3
2022-11-06T05:12:23.518Z,1001.3
2022-11-06T05:13:39.808Z,1001.3
2022-11-06T05:14:56.094Z,1001.3
2022-11-06T05:16:12.382Z,1001.3
2022-11-06T05:17:27.712Z,1001.4
2022-11-06T05:18:43.989Z,1001.3
2022-11-06T05:20:00.291Z,1001.4
2022-11-06T05:21:16.595Z,1001.3
2022-11-06T05:22:32.875Z,1001.3
2022-11-06T05:23:49.168Z,1001.3
2022-11-06T05:25:05.469Z,1001.2
2022-11-06T05:26:21.755Z,1001.3
2022-11-06T05:27:38.067Z,1001.3
2022-11-06T05:28:54.361Z,1001.3
2022-11-06T05:30:10.645Z,1001.3
2022-11-06T05:32:43.229Z,1001.3
2022-11-06T05:33:58.552Z,1001.3
2022-11-06T05:35:14.798Z,1001.2
2022-11-06T05:36:31.096Z,1001.2
2022-11-06T05:37:47.341Z,1001.3
2022-11-06T05:39:03.584Z,1001.2
2022-11-06T05:40:19.822Z,1001.2
2022-11-06T05:41:36.057Z,1001.2
2022-11-06T05:42:52.315Z,1001.2
2022-11-06T05:44:08.559Z,1001.2
2022-11-06T05:45:24.796Z,1001.2
2022-11-06T05:46:41.035Z,1001.2
2022-11-06T05:47:57.273Z,1001.3
2022-11-06T05:49:13.515Z,1001.2
2022-11-06T05:50:28.768Z,1001.2
2022-11-06T05:51:45.021Z,1001.3
2022-11-06T05:53:01.258Z,1001.2
2022-11-06T05:54:17.501Z,1001.3
2022-11-06T05:55:33.726Z,1001.3
2022-11-06T05:56:49.982Z,1001.3
2022-11-06T05:58:06.213Z,1001.3
2022-11-06T05:59:22.462Z,1001.3
2022-11-06T06:00:38.704Z,1001.3
2022-11-06T06:01:54.934Z,1001.4
2022-11-06T06:03:11.172Z,1001.4
2022-11-06T06:04:27.422Z,1001.3
2022-11-06T06:05:43.657Z,1001.4
2022-11-06T06:06:58.920Z,1001.3
2022-11-06T06:08:15.156Z,1001.4
2022-11-06T06:09:31.408Z,1001.4
2022-11-06T06:10:47.634Z,1001.5
2022-11-06T06:12:03.881Z,1001.4
2022-11-06T06:13:20.124Z,1001.5
2022-11-06T06:14:36.356Z,1001.4
2022-11-06T06:15:52.604Z,1001.5
2022-11-06T06:17:08.838Z,1001.5
2022-11-06T06:18:25.083Z,1001.5
2022-11-06T06:19:41.331Z,1001.5
2022-11-06T06:20:57.573Z,1001.6
2022-11-06T06:22:13.799Z,1001.6
2022-11-06T06:23:29.066Z,1001.5
2022-11-06T06:24:45.306Z,1001.6
2022-11-06T06:26:01.546Z,1001.6
2022-11-06T06:27:17.780Z,1001.5
2022-11-06T06:28:34.014Z,1001.6
2022-11-06T06:29:50.270Z,1001.6
2022-11-06T06:31:06.506Z,1001.6
2022-11-06T06:32:22.737Z,1001.7
2022-11-06T06:33:38.988Z,1001.7
2022-11-06T06:34:55.222Z,1001.7
2022-11-06T06:36:11.473Z,1001.7
2022-11-06T06:37:27.703Z,1001.8
2022-11-06T06:38:43.941Z,1001.8
2022-11-06T06:39:59.197Z,1001.7
2022-11-06T06:41:15.458Z,1001.7
2022-11-06T06:42:31.677Z,1001.7
2022-11-06T06:43:47.916Z,1001.7
2022-11-06T06:45:04.169Z,1001.7
2022-11-06T06:46:20.407Z,1001.7
2022-11-06T06:47:36.650Z,1001.8
2022-11-06T06:48:52.896Z,1001.8
2022-11-06T06:50:09.121Z,1001.8
2022-11-06T06:51:25.375Z,1001.8
2022-11-06T06:52:41.619Z,1001.8
2022-11-06T06:53:57.000Z,1001.8
2022-11-06T06:55:14.086Z,1001.8
2022-11-06T06:56:29.349Z,1001.8
2022-11-06T06:57:45.588Z,1001.7
2022-11-06T06:59:01.837Z,1001.8
2022-11-06T07:00:18.063Z,1001.8
2022-11-06T07:01:34.315Z,1001.8
2022-11-06T07:02:50.548Z,1001.8
2022-11-06T07:04:06.790Z,1001.9
2022-11-06T07:05:23.038Z,1001.8
2022-11-06T07:06:39.276Z,1001.8
2022-11-06T07:07:55.524Z,1001.9
2022-11-06T07:09:11.765Z,1001.8
2022-11-06T07:11:44.233Z,1001.8
2022-11-06T07:12:59.494Z,1001.8
2022-11-06T07:14:15.738Z,1001.8
2022-11-06T07:15:31.978Z,1001.8
2022-11-06T07:16:48.209Z,1001.8
2022-11-06T07:18:04.454Z,1001.8
2022-11-06T07:19:20.699Z,1001.8
2022-11-06T07:20:35.951Z,1001.8
2022-11-06T07:21:52.198Z,1001.8
2022-11-06T07:23:08.441Z,1001.7
2022-11-06T07:24:24.685Z,1001.8
2022-11-06T07:25:40.926Z,1001.8
2022-11-06T07:26:57.000Z,1001.9
2022-11-06T07:28:13.409Z,1001.8
2022-11-06T07:29:29.649Z,1001.8
2022-11-06T07:30:45.887Z,1001.8
2022-11-06T07:32:02.131Z,1001.8
2022-11-06T07:33:18.362Z,1001.7
2022-11-06T07:34:34.606Z,1001.8
2022-11-06T07:35:50.848Z,1001.8
2022-11-06T07:37:06.107Z,1001.7
2022-11-06T07:38:22.335Z,1001.7
2022-11-06T07:39:38.585Z,1001.7
2022-11-06T07:42:11.072Z,1001.7
2022-11-06T07:43:27.312Z,1001.7
2022-11-06T07:44:43.538Z,1001.6
2022-11-06T07:45:59.781Z,1001.7
2022-11-06T07:47:16.022Z,1001.6
2022-11-06T07:48:32.260Z,1001.7
2022-11-06T07:49:48.498Z,1001.7
2022-11-06T07:51:04.740Z,1001.6
2022-11-06T07:52:20.991Z,1001.6
2022-11-06T07:53:36.248Z,1001.6
2022-11-06T07:54:52.476Z,1001.6
2022-11-06T07:56:08.717Z,1001.6
2022-11-06T07:57:24.971Z,1001.6
2022-11-06T07:58:41.214Z,1001.6
2022-11-06T07:59:57.451Z,1001.6
2022-11-06T08:01:13.688Z,1001.5
2022-11-06T08:02:29.921Z,1001.6
2022-11-06T08:03:46.171Z,1001.6
2022-11-06T08:05:02.401Z,1001.5
2022-11-06T08:06:18.661Z,1001.5
2022-11-06T08:07:34.881Z,1001.5
2022-11-06T08:08:51.125Z,1001.5
2022-11-06T08:10:06.395Z,1001.5
2022-11-06T08:11:22.623Z,1001.5
2022-11-06T08:12:38.862Z,1001.5
2022-11-06T08:13:55.100Z,1001.5
2022-11-06T08:15:11.359Z,1001.4
2022-11-06T08:16:27.601Z,1001.4
2022-11-06T08:17:43.826Z,1001.5
2022-11-06T08:19:00.082Z,1001.4
2022-11-06T08:20:16.305Z,1001.5
2022-11-06T08:21:32.554Z,1001.5
2022-11-06T08:22:48.804Z,1001.5
2022-11-06T08:24:05.026Z,1001.5
2022-11-06T08:25:21.271Z,1001.4
2022-11-06T08:27:52.779Z,1001.4
2022-11-06T08:29:09.008Z,1001.4
2022-11-06T08:30:25.247Z,1001.4
2022-11-06T08:31:41.483Z,1001.4
2022-11-06T08:32:57.740Z,1001.4
2022-11-06T08:34:13.983Z,1001.4
2022-11-06T08:35:30.208Z,1001.3
2022-11-06T08:36:46.463Z,1001.3
2022-11-06T08:38:02.696Z,1001.4
2022-11-06T08:39:18.940Z,1001.4
2022-11-06T08:40:35.186Z,1001.3
2022-11-06T08:41:51.408Z,1001.3
2022-11-06T08:43:07.659Z,1001.3
2022-11-06T08:44:22.909Z,1001.3
2022-11-06T08:45:39.149Z,1001.3
2022-11-06T08:46:55.401Z,1001.3
2022-11-06T08:48:11.627Z,1001.3
2022-11-06T08:49:27.885Z,1001.4
2022-11-06T08:50:44.123Z,1001.4
2022-11-06T08:52:00.359Z,1001.3
2022-11-06T08:53:16.605Z,1001.4
2022-11-06T08:54:32.835Z,1001.3
2022-11-06T08:55:49.073Z,1001.3
2022-11-06T08:57:05.308Z,1001.3
2022-11-06T08:58:21.557Z,1001.2
2022-11-06T08:59:37.808Z,1001.3
2022-11-06T09:00:53.064Z,1001.3
2022-11-06T09:02:09.294Z,1001.2
2022-11-06T09:03:25.530Z,1001.3
2022-11-06T09:04:41.784Z,1001.3
2022-11-06T09:05:58.015Z,1001.2
2022-11-06T09:07:14.249Z,1001.2
2022-11-06T09:08:30.505Z,1001.2
2022-11-06T09:09:46.747Z,1001.2
2022-11-06T09:11:02.987Z,1001.2
2022-11-06T09:12:19.231Z,1001.2
2022-11-06T09:13:35.470Z,1001.1
2022-11-06T09:14:51.710Z,1001.2
2022-11-06T09:16:07.941Z,1001.1
2022-11-06T09:17:23.206Z,1001.1
2022-11-06T09:18:39.428Z,1001
2022-11-06T09:19:55.680Z,1001
2022-11-06T09:21:11.926Z,1000.9
2022-11-06T09:22:28.161Z,1000.9
2022-11-06T09:23:44.399Z,1000.9
2022-11-06T09:25:00.651Z,1000.9
2022-11-06T09:26:16.888Z,1000.9
2022-11-06T09:27:33.123Z,1000.8
2022-11-06T09:28:49.370Z,1000.9
2022-11-06T09:30:05.601Z,1000.9
2022-11-06T09:31:21.840Z,1000.9
2022-11-06T09:32:38.094Z,1000.9
2022-11-06T09:33:53.350Z,1000.9
2022-11-06T09:35:09.571Z,1000.9
2022-11-06T09:36:25.826Z,1000.9
2022-11-06T09:37:42.064Z,1000.9
2022-11-06T09:40:14.552Z,1000.8
2022-11-06T09:41:30.776Z,1000.8
2022-11-06T09:42:47.023Z,1000.7
2022-11-06T09:44:03.270Z,1000.7
2022-11-06T09:45:19.511Z,1000.7
2022-11-06T09:46:35.740Z,1000.8
2022-11-06T09:47:51.975Z,1000.7
2022-11-06T09:49:08.224Z,1000.7
2022-11-06T09:50:23.490Z,1000.7
2022-11-06T09:51:39.726Z,1000.6
2022-11-06T09:52:55.973Z,1000.7
2022-11-06T09:54:12.203Z,1000.7
2022-11-06T09:55:28.449Z,1000.7
2022-11-06T09:56:44.675Z,1000.7
2022-11-06T09:58:00.933Z,1000.7
2022-11-06T09:59:17.173Z,1000.7
2022-11-06T10:00:33.402Z,1000.6
2022-11-06T10:01:49.656Z,1000.6
2022-11-06T10:03:05.890Z,1000.6
2022-11-06T10:04:22.128Z,1000.6
2022-11-06T10:05:38.368Z,1000.6
2022-11-06T10:06:53.633Z,1000.5
2022-11-06T10:08:09.859Z,1000.5
2022-11-06T10:09:26.108Z,1000.5
2022-11-06T10:10:42.338Z,1000.5
2022-11-06T10:11:58.577Z,1000.5
2022-11-06T10:14:31.058Z,1000.5
2022-11-06T10:15:47.310Z,1000.5
2022-11-06T10:17:03.557Z,1000.5
2022-11-06T10:18:19.783Z,1000.4
2022-11-06T10:19:36.019Z,1000.5
2022-11-06T10:20:52.270Z,1000.5
2022-11-06T10:22:08.514Z,1000.4
2022-11-06T10:23:23.765Z,1000.4
2022-11-06T10:24:39.997Z,1000.3
2022-11-06T10:25:56.248Z,1000.4
2022-11-06T10:27:12.488Z,1000.4
2022-11-06T10:28:28.728Z,1000.3
2022-11-06T10:29:44.975Z,1000.4
2022-11-06T10:31:01.199Z,1000.3
2022-11-06T10:32:17.443Z,1000.3
2022-11-06T10:33:33.686Z,1000.3
2022-11-06T10:34:49.938Z,1000.3
2022-11-06T10:36:06.169Z,1000.3
2022-11-06T10:37:22.414Z,1000.3
2022-11-06T10:38:38.653Z,1000.2
2022-11-06T10:39:53.918Z,1000.3
2022-11-06T10:41:10.151Z,1000.2
2022-11-06T10:42:26.389Z,1000.2
2022-11-06T10:43:42.629Z,1000.2
2022-11-06T10:44:58.862Z,1000.2
2022-11-06T10:46:15.115Z,1000.2
2022-11-06T10:47:31.344Z,1000.2
2022-11-06T10:48:47.593Z,1000.1
2022-11-06T10:50:03.835Z,1000.2
2022-11-06T10:51:20.070Z,1000.2
2022-11-06T10:52:36.317Z,1000.2
2022-11-06T10:55:08.802Z,1000.1
2022-11-06T10:56:24.039Z,1000.1
2022-11-06T10:57:40.280Z,1000
2022-11-06T11:00:12.769Z,1000
2022-11-06T11:01:29.014Z,1000
2022-11-06T11:02:45.241Z,1000
2022-11-06T11:04:01.490Z,999.9
2022-11-06T11:05:17.735Z,1000
2022-11-06T11:07:50.209Z,999.9
2022-11-06T11:09:05.471Z,999.9
2022-11-06T11:10:20.727Z,999.9
2022-11-06T11:11:36.962Z,999.8
2022-11-06T11:12:53.201Z,999.8
2022-11-06T11:14:09.458Z,999.8
2022-11-06T11:15:25.694Z,999.8
2022-11-06T11:16:41.930Z,999.8
2022-11-06T11:17:58.178Z,999.8
2022-11-06T11:19:14.422Z,999.8
2022-11-06T11:20:30.653Z,999.7
2022-11-06T11:21:46.897Z,999.7
2022-11-06T11:23:02.163Z,999.6
2022-11-06T11:25:34.637Z,999.7
2022-11-06T11:26:49.887Z,999.6
2022-11-06T11:28:06.139Z,999.6
2022-11-06T11:29:22.374Z,999.5
2022-11-06T11:30:38.603Z,999.4
2022-11-06T11:31:54.854Z,999.4
2022-11-06T11:33:11.086Z,999.4
2022-11-06T11:34:27.338Z,999.4
2022-11-06T11:35:42.596Z,999.4
2022-11-06T11:36:58.836Z,999.4
2022-11-06T11:38:15.086Z,999.4
2022-11-06T11:39:31.323Z,999.4
2022-11-06T11:40:47.553Z,999.4
2022-11-06T11:42:03.790Z,999.3
2022-11-06T11:43:20.029Z,999.3
2022-11-06T11:44:36.280Z,999.4
2022-11-06T11:45:52.523Z,999.3
2022-11-06T11:47:08.759Z,999.2
2022-11-06T11:48:24.989Z,999.2
2022-11-06T11:49:41.230Z,999.2
2022-11-06T11:50:57.477Z,999.1
2022-11-06T11:52:12.743Z,999.1
2022-11-06T11:53:28.986Z,999.1
2022-11-06T11:54:45.207Z,999.2
2022-11-06T11:56:01.453Z,999.1
2022-11-06T11:57:17.692Z,999.2
2022-11-06T11:58:33.943Z,999.2
2022-11-06T11:59:50.177Z,999.2
2022-11-06T12:01:06.422Z,999.1
2022-11-06T12:02:22.665Z,999.1
2022-11-06T12:03:38.895Z,999.1
2022-11-06T12:04:55.137Z,999
2022-11-06T12:06:11.367Z,999
2022-11-06T12:07:27.613Z,999
2022-11-06T12:08:42.875Z,998.9
2022-11-06T12:09:59.119Z,998.9
2022-11-06T12:11:15.356Z,998.9
2022-11-06T12:12:31.586Z,998.9
2022-11-06T12:13:47.837Z,998.9
2022-11-06T12:15:04.074Z,998.9
2022-11-06T12:16:20.303Z,998.9
2022-11-06T12:17:36.548Z,998.8
2022-11-06T12:18:52.799Z,998.8
2022-11-06T12:20:09.042Z,998.8
2022-11-06T12:21:25.272Z,998.8
2022-11-06T12:23:57.752Z,998.7
2022-11-06T12:25:13.989Z,998.8
2022-11-06T12:26:29.251Z,998.7
2022-11-06T12:27:45.484Z,998.8
2022-11-06T12:29:01.728Z,998.8
2022-11-06T12:30:17.958Z,998.7
2022-11-06T12:31:34.200Z,998.7
2022-11-06T12:32:50.447Z,998.7
2022-11-06T12:34:06.690Z,998.7
2022-11-06T12:35:22.932Z,998.7
2022-11-06T12:36:39.168Z,998.7
2022-11-06T12:37:55.403Z,998.7
2022-11-06T12:39:11.642Z,998.7
2022-11-06T12:40:27.899Z,998.7
2022-11-06T12:41:44.120Z,998.7
2022-11-06T12:43:00.373Z,998.7
2022-11-06T12:44:15.624Z,998.7
2022-11-06T12:45:31.871Z,998.7
2022-11-06T12:46:48.099Z,998.7
2022-11-06T12:48:04.337Z,998.7
2022-11-06T12:49:20.594Z,998.7
2022-11-06T12:50:36.821Z,998.6
2022-11-06T12:51:53.075Z,998.6
2022-11-06T12:54:25.541Z,998.4
2022-11-06T12:55:41.777Z,998.5
2022-11-06T12:56:58.027Z,998.4
2022-11-06T12:58:14.275Z,998.4
2022-11-06T12:59:30.499Z,998.4
2022-11-06T13:00:45.761Z,998.4
2022-11-06T13:02:01.993Z,998.4
2022-11-06T13:03:18.252Z,998.3
2022-11-06T13:04:34.477Z,998.4
2022-11-06T13:05:50.729Z,998.3
2022-11-06T13:07:06.967Z,998.3
2022-11-06T13:08:23.209Z,998.3
2022-11-06T13:09:39.441Z,998.2
2022-11-06T13:10:55.692Z,998.3
2022-11-06T13:12:11.934Z,998.2
2022-11-06T13:13:28.173Z,998.2
2022-11-06T13:14:44.395Z,998.3
2022-11-06T13:16:00.637Z,998.3
2022-11-06T13:17:15.894Z,998.3
2022-11-06T13:18:32.135Z,998.2
2022-11-06T13:19:48.383Z,998.2
2022-11-06T13:21:04.625Z,998.2
2022-11-06T13:23:37.099Z,998.1
2022-11-06T13:24:53.333Z,998.2
2022-11-06T13:26:09.587Z,998.1
2022-11-06T13:27:25.833Z,998
2022-11-06T13:28:42.056Z,998.1
2022-11-06T13:29:58.304Z,998.1
2022-11-06T13:31:14.546Z,998
2022-11-06T13:32:30.790Z,998
2022-11-06T13:33:47.030Z,998
2022-11-06T13:35:02.287Z,998
2022-11-06T13:36:18.513Z,998
2022-11-06T13:37:34.761Z,997.9
2022-11-06T13:38:51.005Z,998
2022-11-06T13:40:07.249Z,997.9
2022-11-06T13:41:23.486Z,997.9
2022-11-06T13:42:39.731Z,997.9
2022-11-06T13:43:55.961Z,997.8
2022-11-06T13:45:12.197Z,997.9
2022-11-06T13:46:28.436Z,997.9
2022-11-06T13:47:44.692Z,997.8
2022-11-06T13:49:00.916Z,997.8
2022-11-06T13:50:17.165Z,997.7
2022-11-06T13:51:32.430Z,997.7
2022-11-06T13:52:48.663Z,997.7
2022-11-06T13:54:04.899Z,997.6
2022-11-06T13:55:21.151Z,997.6
2022-11-06T13:56:37.385Z,997.6
2022-11-06T13:57:53.620Z,997.5
2022-11-06T13:59:09.868Z,997.5
2022-11-06T14:00:26.092Z,997.5
2022-11-06T14:01:42.344Z,997.5
2022-11-06T14:02:58.583Z,997.5
2022-11-06T14:04:14.831Z,997.4
2022-11-06T14:05:31.060Z,997.4
2022-11-06T14:06:47.296Z,997.4
2022-11-06T14:08:02.554Z,997.4
2022-11-06T14:09:18.807Z,997.5
2022-11-06T14:10:35.041Z,997.4
2022-11-06T14:11:51.277Z,997.4
2022-11-06T14:13:07.512Z,997.4
2022-11-06T14:14:23.765Z,997.4
2022-11-06T14:15:39.996Z,997.4
2022-11-06T14:16:56.247Z,997.4
2022-11-06T14:18:12.473Z,997.4
2022-11-06T14:19:28.712Z,997.3
2022-11-06T14:20:44.964Z,997.3
2022-11-06T14:22:01.205Z,997.3
2022-11-06T14:24:33.686Z,997.2
2022-11-06T14:25:48.943Z,997.2
2022-11-06T14:27:05.181Z,997.2
2022-11-06T14:28:21.425Z,997.3
2022-11-06T14:29:37.647Z,997.2
2022-11-06T14:30:53.894Z,997.2
2022-11-06T14:32:10.135Z,997.1
2022-11-06T14:33:26.377Z,997.2
2022-11-06T14:34:42.616Z,997.1
2022-11-06T14:35:58.855Z,997.2
2022-11-06T14:37:15.100Z,997.2
2022-11-06T14:38:31.343Z,997.1
2022-11-06T14:39:47.579Z,997.2
2022-11-06T14:41:03.823Z,997.2
2022-11-06T14:42:19.073Z,997.2
2022-11-06T14:43:35.310Z,997.2
2022-11-06T14:44:51.548Z,997.2
2022-11-06T14:46:07.804Z,997.1
2022-11-06T14:47:24.031Z,997.2
2022-11-06T14:48:40.271Z,997.1
2022-11-06T14:49:56.524Z,997.1
2022-11-06T14:51:12.761Z,997.1
2022-11-06T14:52:29.007Z,997
2022-11-06T14:53:45.245Z,997
2022-11-06T14:55:01.473Z,997
2022-11-06T14:56:17.721Z,997
2022-11-06T14:57:33.965Z,997
2022-11-06T14:58:49.213Z,997
2022-11-06T15:00:05.464Z,997
2022-11-06T15:01:21.703Z,997
2022-11-06T15:02:37.941Z,996.9
2022-11-06T15:03:54.188Z,996.9
2022-11-06T15:05:10.409Z,996.9
2022-11-06T15:06:26.656Z,996.9
2022-11-06T15:07:42.894Z,996.9
2022-11-06T15:08:59.145Z,996.9
2022-11-06T15:10:15.386Z,996.9
2022-11-06T15:11:31.618Z,996.9
2022-11-06T15:12:47.856Z,997
2022-11-06T15:14:04.103Z,997
2022-11-06T15:15:19.348Z,996.9
2022-11-06T15:16:35.595Z,996.9
2022-11-06T15:17:51.833Z,996.9
2022-11-06T15:19:08.074Z,997
2022-11-06T15:21:40.564Z,996.9
2022-11-06T15:22:56.803Z,996.9
2022-11-06T15:24:13.031Z,996.8
2022-11-06T15:25:29.284Z,996.9
2022-11-06T15:26:45.513Z,996.8
2022-11-06T15:28:01.753Z,996.8
2022-11-06T15:29:17.991Z,996.8
2022-11-06T15:30:34.242Z,996.8
2022-11-06T15:31:49.502Z,996.8
2022-11-06T15:33:05.744Z,996.8
2022-11-06T15:35:38.221Z,996.8
2022-11-06T15:36:54.454Z,996.8
2022-11-06T15:38:10.697Z,996.8
2022-11-06T15:39:26.948Z,996.8
2022-11-06T15:40:43.187Z,996.7
2022-11-06T15:41:59.420Z,996.7
2022-11-06T15:43:15.665Z,996.6
2022-11-06T15:44:31.893Z,996.7
2022-11-06T15:45:48.149Z,996.6
2022-11-06T15:47:04.384Z,996.6
2022-11-06T15:48:19.637Z,996.6
2022-11-06T15:49:35.874Z,996.6
2022-11-06T15:50:51.136Z,996.6
2022-11-06T15:52:07.373Z,996.6
2022-11-06T15:53:23.631Z,996.6
2022-11-06T15:54:39.857Z,996.6
2022-11-06T15:55:56.105Z,996.6
2022-11-06T15:57:12.342Z,996.7
2022-11-06T15:58:28.587Z,996.6
2022-11-06T15:59:44.817Z,996.6
2022-11-06T16:01:01.059Z,996.6
2022-11-06T16:02:17.300Z,996.6
2022-11-06T16:03:33.546Z,996.6
2022-11-06T16:04:49.787Z,996.5
2022-11-06T16:06:06.034Z,996.6
2022-11-06T16:07:21.282Z,996.6
2022-11-06T16:08:37.529Z,996.6
2022-11-06T16:09:53.776Z,996.6
2022-11-06T16:11:10.069Z,996.5
2022-11-06T16:12:26.354Z,996.4
2022-11-06T16:13:42.643Z,996.5
2022-11-06T16:14:58.950Z,996.5
2022-11-06T16:16:15.232Z,996.5
2022-11-06T16:17:31.528Z,996.4
2022-11-06T16:18:47.830Z,996.5
2022-11-06T16:20:04.129Z,996.4
2022-11-06T16:21:20.420Z,996.5
2022-11-06T16:22:36.704Z,996.4
2022-11-06T16:23:52.026Z,996.4
2022-11-06T16:25:08.314Z,996.4
2022-11-06T16:27:40.909Z,996.3
2022-11-06T16:28:57.204Z,996.4
2022-11-06T16:30:13.506Z,996.3
2022-11-06T16:31:29.782Z,996.3
2022-11-06T16:32:46.093Z,996.4
2022-11-06T16:34:02.391Z,996.4
2022-11-06T16:35:18.679Z,996.3
2022-11-06T16:36:34.970Z,996.3